createdAt,value
2022-08-21T00:02:15.005Z,18.50
2022-08-21T00:04:57.027Z,18.60
2022-08-21T00:07:26.814Z,18.60
2022-08-21T00:09:55.674Z,18.60
2022-08-21T00:12:24.065Z,18.60
2022-08-21T00:14:58.042Z,18.60
2022-08-21T00:17:26.632Z,18.60
2022-08-21T00:19:54.824Z,18.70
2022-08-21T00:22:22.992Z,18.60
2022-08-21T00:24:51.170Z,18.70
2022-08-21T00:27:19.502Z,18.60
2022-08-21T00:29:47.787Z,18.70
2022-08-21T00:32:23.132Z,18.60
2022-08-21T00:34:51.582Z,18.60
2022-08-21T00:37:20.017Z,18.60
2022-08-21T00:39:49.574Z,18.70
2022-08-21T00:42:20.897Z,18.70
2022-08-21T00:44:55.423Z,18.70
2022-08-21T00:47:24.969Z,18.70
2022-08-21T00:49:53.176Z,18.70
2022-08-21T00:52:27.193Z,18.70
2022-08-21T00:54:59.326Z,18.70
2022-08-21T00:57:34.147Z,18.70
2022-08-21T01:00:08.245Z,18.70
2022-08-21T01:02:37.854Z,18.70
2022-08-21T01:05:07.077Z,18.70
2022-08-21T01:07:35.568Z,18.70
2022-08-21T01:10:04.816Z,18.80
2022-08-21T01:12:33.482Z,18.70
2022-08-21T01:15:05.267Z,18.80
2022-08-21T01:17:34.265Z,18.80
2022-08-21T01:20:09.267Z,18.80
2022-08-21T01:22:40.148Z,18.80
2022-08-21T01:25:11.781Z,18.70
2022-08-21T01:27:41.739Z,18.70
2022-08-21T01:30:17.653Z,18.60
2022-08-21T01:32:47.754Z,18.60
2022-08-21T01:35:18.699Z,18.60
2022-08-21T01:37:50.322Z,18.60
2022-08-21T01:40:20.609Z,18.60
2022-08-21T01:42:49.538Z,18.50
2022-08-21T01:45:18.656Z,18.60
2022-08-21T01:47:47.512Z,18.50
2022-08-21T01:50:21.045Z,18.50
2022-08-21T01:52:51.475Z,18.40
2022-08-21T01:55:20.808Z,18.40
2022-08-21T01:57:49.930Z,18.40
2022-08-21T02:00:24.567Z,18.40
2022-08-21T02:02:54.231Z,18.30
2022-08-21T02:05:22.769Z,18.30
2022-08-21T02:07:57.440Z,18.30
2022-08-21T02:10:30.281Z,18.30
2022-08-21T02:12:59.874Z,18.40
2022-08-21T02:15:28.728Z,18.40
2022-08-21T02:18:02.847Z,18.20
2022-08-21T02:20:36.768Z,18.30
2022-08-21T02:23:08.664Z,18.20
2022-08-21T02:25:38.263Z,18.10
2022-08-21T02:28:13.629Z,18.10
2022-08-21T02:30:47.497Z,18.10
2022-08-21T02:33:16.744Z,18.10
2022-08-21T02:35:48.312Z,18.10
2022-08-21T02:38:21.743Z,18.10
2022-08-21T02:40:52.937Z,18.10
2022-08-21T02:43:23.385Z,18.10
2022-08-21T02:45:53.325Z,18.10
2022-08-21T02:48:25.443Z,18.00
2022-08-21T02:50:58.793Z,18.00
2022-08-21T02:53:29.984Z,18.00
2022-08-21T02:56:01.285Z,18.00
2022-08-21T02:58:39.517Z,17.90
2022-08-21T03:01:10.476Z,18.00
2022-08-21T03:03:40.433Z,17.90
2022-08-21T03:06:11.571Z,17.90
2022-08-21T03:08:41.264Z,17.90
2022-08-21T03:11:10.233Z,17.90
2022-08-21T03:13:39.655Z,17.90
2022-08-21T03:16:10.646Z,17.90
2022-08-21T03:18:40.031Z,17.80
2022-08-21T03:21:08.909Z,17.90
2022-08-21T03:23:37.289Z,17.80
2022-08-21T03:26:07.140Z,17.80
2022-08-21T03:28:36.166Z,17.80
2022-08-21T03:31:04.373Z,17.70
2022-08-21T03:33:33.017Z,17.70
2022-08-21T03:36:06.508Z,17.80
2022-08-21T03:38:36.612Z,17.80
2022-08-21T03:41:08.180Z,17.70
2022-08-21T03:43:37.316Z,17.70
2022-08-21T03:46:07.127Z,17.70
2022-08-21T03:48:38.831Z,17.60
2022-08-21T03:51:08.514Z,17.70
2022-08-21T03:53:37.322Z,17.60
2022-08-21T03:56:08.775Z,17.60
2022-08-21T03:58:36.965Z,17.60
2022-08-21T04:01:08.057Z,17.60
2022-08-21T04:03:38.877Z,17.60
2022-08-21T04:06:08.616Z,17.60
2022-08-21T04:08:37.261Z,17.60
2022-08-21T04:11:08.331Z,17.60
2022-08-21T04:13:44.600Z,17.50
2022-08-21T04:16:13.469Z,17.50
2022-08-21T04:18:42.098Z,17.60
2022-08-21T04:21:13.519Z,17.60
2022-08-21T04:23:42.279Z,17.60
2022-08-21T04:26:12.319Z,17.60
2022-08-21T04:28:40.953Z,17.60
2022-08-21T04:31:11.583Z,17.60
2022-08-21T04:33:40.253Z,17.60
2022-08-21T04:36:09.241Z,17.60
2022-08-21T04:38:37.904Z,17.60
2022-08-21T04:41:13.318Z,17.60
2022-08-21T04:43:41.967Z,17.60
2022-08-21T04:46:10.209Z,17.60
2022-08-21T04:48:42.396Z,17.60
2022-08-21T04:51:17.240Z,17.70
2022-08-21T04:53:53.057Z,17.60
2022-08-21T04:56:33.821Z,17.70
2022-08-21T04:59:08.610Z,17.70
2022-08-21T05:01:41.772Z,17.70
2022-08-21T05:04:15.307Z,17.70
2022-08-21T05:06:47.649Z,17.70
2022-08-21T05:09:20.378Z,17.70
2022-08-21T05:11:51.013Z,17.70
2022-08-21T05:14:20.325Z,17.70
2022-08-21T05:16:48.719Z,17.70
2022-08-21T05:19:16.927Z,17.70
2022-08-21T05:21:48.967Z,17.70
2022-08-21T05:24:18.770Z,17.80
2022-08-21T05:26:48.015Z,17.80
2022-08-21T05:29:19.019Z,17.80
2022-08-21T05:31:48.692Z,17.80
2022-08-21T05:34:21.629Z,17.80
2022-08-21T05:36:50.370Z,17.80
2022-08-21T05:39:18.636Z,17.80
2022-08-21T05:41:46.832Z,17.90
2022-08-21T05:44:15.017Z,17.90
2022-08-21T05:46:44.466Z,17.90
2022-08-21T05:49:13.458Z,17.90
2022-08-21T05:51:42.800Z,18.00
2022-08-21T05:54:11.959Z,18.00
2022-08-21T05:56:40.144Z,18.00
2022-08-21T05:59:08.936Z,18.10
2022-08-21T06:01:37.512Z,18.10
2022-08-21T06:04:08.115Z,18.10
2022-08-21T06:06:37.022Z,18.20
2022-08-21T06:09:05.985Z,18.30
2022-08-21T06:11:35.290Z,18.30
2022-08-21T06:14:03.761Z,18.20
2022-08-21T06:16:32.318Z,18.30
2022-08-21T06:19:02.823Z,18.30
2022-08-21T06:21:33.161Z,18.30
2022-08-21T06:24:01.730Z,18.20
2022-08-21T06:26:30.194Z,18.30
2022-08-21T06:28:58.558Z,18.30
2022-08-21T06:31:29.908Z,18.40
2022-08-21T06:33:58.674Z,18.40
2022-08-21T06:36:27.083Z,18.50
2022-08-21T06:38:58.038Z,18.40
2022-08-21T06:41:27.104Z,18.50
2022-08-21T06:43:57.447Z,18.50
2022-08-21T06:46:27.698Z,18.40
2022-08-21T06:48:56.704Z,18.50
2022-08-21T06:51:26.391Z,18.60
2022-08-21T06:53:56.620Z,18.60
2022-08-21T06:56:27.845Z,18.60
2022-08-21T06:58:56.532Z,18.60
2022-08-21T07:01:28.601Z,18.70
2022-08-21T07:03:57.183Z,18.70
2022-08-21T07:06:26.039Z,18.90
2022-08-21T07:08:58.941Z,18.90
2022-08-21T07:11:28.070Z,19.00
2022-08-21T07:13:57.512Z,19.00
2022-08-21T07:16:26.089Z,19.10
2022-08-21T07:18:54.471Z,19.30
2022-08-21T07:21:25.935Z,19.30
2022-08-21T07:23:56.430Z,19.40
2022-08-21T07:26:26.860Z,19.40
2022-08-21T07:28:56.104Z,19.00
2022-08-21T07:31:28.184Z,19.10
2022-08-21T07:33:56.776Z,19.20
2022-08-21T07:36:25.436Z,19.20
2022-08-21T07:38:53.947Z,19.30
2022-08-21T07:41:26.607Z,19.30
2022-08-21T07:43:55.198Z,19.30
2022-08-21T07:46:23.473Z,19.20
2022-08-21T07:48:51.868Z,19.30
2022-08-21T07:51:27.797Z,19.30
2022-08-21T07:53:59.916Z,19.40
2022-08-21T07:56:32.797Z,19.30
2022-08-21T07:59:01.061Z,19.40
2022-08-21T08:01:29.244Z,19.40
2022-08-21T08:03:58.788Z,19.50
2022-08-21T08:06:27.262Z,19.50
2022-08-21T08:08:55.355Z,19.60
2022-08-21T08:11:23.625Z,19.80
2022-08-21T08:13:57.696Z,19.70
2022-08-21T08:16:25.927Z,19.80
2022-08-21T08:18:55.721Z,19.90
2022-08-21T08:21:24.285Z,20.00
2022-08-21T08:23:53.166Z,20.10
2022-08-21T08:26:21.371Z,20.30
2022-08-21T08:28:49.652Z,20.40
2022-08-21T08:31:19.582Z,20.50
2022-08-21T08:33:47.704Z,20.30
2022-08-21T08:36:18.318Z,20.30
2022-08-21T08:38:49.863Z,20.30
2022-08-21T08:41:23.751Z,20.30
2022-08-21T08:43:56.053Z,20.50
2022-08-21T08:46:38.025Z,20.60
2022-08-21T08:49:17.030Z,20.50
2022-08-21T08:51:56.961Z,20.50
2022-08-21T08:54:33.996Z,20.50
2022-08-21T08:57:04.089Z,20.40
2022-08-21T08:59:41.729Z,20.40
2022-08-21T09:02:16.896Z,20.50
2022-08-21T09:04:49.927Z,20.50
2022-08-21T09:07:30.587Z,20.50
2022-08-21T09:10:13.946Z,20.50
2022-08-21T09:12:57.991Z,20.50
2022-08-21T09:15:35.346Z,20.40
2022-08-21T09:18:32.452Z,20.50
2022-08-21T09:21:17.776Z,20.50
2022-08-21T09:24:00.371Z,20.70
2022-08-21T09:26:36.238Z,20.70
2022-08-21T09:29:06.689Z,20.80
2022-08-21T09:31:39.395Z,20.70
2022-08-21T09:34:14.610Z,20.80
2022-08-21T09:36:46.940Z,20.60
2022-08-21T09:39:26.634Z,20.50
2022-08-21T09:42:02.014Z,20.70
2022-08-21T09:44:34.424Z,20.60
2022-08-21T09:47:02.630Z,20.70
2022-08-21T09:49:35.469Z,20.70
2022-08-21T09:52:08.728Z,20.60
2022-08-21T09:54:42.690Z,20.60
2022-08-21T09:57:42.833Z,20.70
2022-08-21T10:00:26.406Z,20.90
2022-08-21T10:02:54.726Z,21.00
2022-08-21T10:05:29.240Z,21.10
2022-08-21T10:07:57.502Z,21.30
2022-08-21T10:10:32.828Z,21.30
2022-08-21T10:13:12.607Z,21.40
2022-08-21T10:15:52.878Z,21.40
2022-08-21T10:18:29.702Z,21.60
2022-08-21T10:21:12.040Z,21.70
2022-08-21T10:23:56.655Z,21.60
2022-08-21T10:26:46.444Z,21.60
2022-08-21T10:29:33.701Z,21.90
2022-08-21T10:32:25.710Z,21.90
2022-08-21T10:35:10.045Z,21.90
2022-08-21T10:37:58.642Z,21.80
2022-08-21T10:40:32.992Z,22.00
2022-08-21T10:43:20.857Z,22.00
2022-08-21T10:46:04.451Z,22.00
2022-08-21T10:48:40.578Z,22.10
2022-08-21T10:51:18.980Z,22.00
2022-08-21T10:54:07.521Z,22.20
2022-08-21T10:56:43.986Z,22.40
2022-08-21T10:59:30.157Z,22.40
2022-08-21T11:02:11.922Z,22.60
2022-08-21T11:04:51.829Z,22.80
2022-08-21T11:07:30.196Z,23.10
2022-08-21T11:10:15.106Z,23.10
2022-08-21T11:12:51.641Z,23.10
2022-08-21T11:15:35.824Z,23.10
2022-08-21T11:18:18.426Z,23.20
2022-08-21T11:21:03.482Z,23.30
2022-08-21T11:23:43.145Z,23.50
2022-08-21T11:26:21.335Z,23.30
2022-08-21T11:28:59.755Z,23.40
2022-08-21T11:31:49.620Z,23.40
2022-08-21T11:34:47.540Z,23.50
2022-08-21T11:37:32.290Z,23.80
2022-08-21T11:40:08.335Z,23.70
2022-08-21T11:42:52.329Z,23.70
2022-08-21T11:45:32.917Z,23.70
2022-08-21T11:48:13.246Z,23.90
2022-08-21T11:50:46.317Z,24.00
2022-08-21T11:53:22.075Z,24.50
2022-08-21T11:55:55.138Z,24.60
2022-08-21T11:58:32.301Z,24.50
2022-08-21T12:01:07.342Z,24.70
2022-08-21T12:03:41.181Z,25.00
2022-08-21T12:06:24.478Z,25.20
2022-08-21T12:09:02.496Z,25.00
2022-08-21T12:11:31.282Z,24.80
2022-08-21T12:14:14.838Z,24.60
2022-08-21T12:16:46.234Z,24.20
2022-08-21T12:19:31.869Z,24.10
2022-08-21T12:22:11.197Z,24.40
2022-08-21T12:24:44.073Z,24.30
2022-08-21T12:27:30.467Z,24.50
2022-08-21T12:30:05.493Z,24.60
2022-08-21T12:32:47.861Z,24.80
2022-08-21T12:35:25.030Z,25.60
2022-08-21T12:38:04.343Z,25.90
2022-08-21T12:40:41.235Z,26.00
2022-08-21T12:43:20.274Z,25.50
2022-08-21T12:45:53.398Z,25.00
2022-08-21T12:48:28.962Z,24.60
2022-08-21T12:51:01.527Z,24.90
2022-08-21T12:53:36.031Z,24.80
2022-08-21T12:56:06.280Z,24.90
2022-08-21T12:58:34.383Z,25.50
2022-08-21T13:01:08.213Z,26.70
2022-08-21T13:03:39.803Z,27.70
2022-08-21T13:06:10.532Z,28.00
2022-08-21T13:08:42.572Z,28.50
2022-08-21T13:11:32.430Z,28.90
2022-08-21T13:14:05.341Z,28.70
2022-08-21T13:16:36.292Z,28.10
2022-08-21T13:19:09.587Z,27.20
2022-08-21T13:21:43.851Z,26.40
2022-08-21T13:27:21.458Z,26.60
2022-08-21T13:29:54.203Z,27.10
2022-08-21T13:32:29.541Z,27.20
2022-08-21T13:34:58.682Z,27.00
2022-08-21T13:37:30.228Z,27.20
2022-08-21T13:39:58.473Z,27.90
2022-08-21T13:42:26.762Z,28.30
2022-08-21T13:44:56.030Z,28.50
2022-08-21T13:47:25.620Z,28.00
2022-08-21T13:49:59.091Z,28.40
2022-08-21T13:52:29.956Z,27.70
2022-08-21T13:55:02.327Z,27.00
2022-08-21T13:57:34.053Z,26.40
2022-08-21T14:00:22.485Z,27.00
2022-08-21T14:02:54.818Z,27.00
2022-08-21T14:05:29.306Z,26.40
2022-08-21T14:08:06.738Z,26.30
2022-08-21T14:10:43.212Z,26.20
2022-08-21T14:13:41.521Z,26.40
2022-08-21T14:16:20.337Z,27.10
2022-08-21T14:18:55.078Z,27.60
2022-08-21T14:21:37.944Z,28.10
2022-08-21T14:24:11.420Z,28.50
2022-08-21T14:26:52.406Z,27.90
2022-08-21T14:29:26.477Z,27.50
2022-08-21T14:31:58.583Z,27.00
2022-08-21T14:34:35.753Z,26.30
2022-08-21T14:37:04.427Z,25.70
2022-08-21T14:39:32.563Z,25.20
2022-08-21T14:42:01.933Z,25.00
2022-08-21T14:44:30.236Z,25.10
2022-08-21T14:46:58.551Z,25.30
2022-08-21T14:49:30.661Z,25.30
2022-08-21T14:51:59.764Z,25.20
2022-08-21T14:54:31.685Z,25.10
2022-08-21T14:57:05.269Z,25.30
2022-08-21T14:59:34.670Z,25.70
2022-08-21T15:02:05.072Z,26.30
2022-08-21T15:04:35.866Z,26.40
2022-08-21T15:07:04.875Z,26.50
2022-08-21T15:09:33.013Z,27.00
2022-08-21T15:12:03.985Z,27.90
2022-08-21T15:14:36.917Z,27.90
2022-08-21T15:17:07.577Z,27.40
2022-08-21T15:19:37.235Z,27.10
2022-08-21T15:22:18.872Z,27.30
2022-08-21T15:24:47.579Z,27.40
2022-08-21T15:27:18.571Z,27.00
2022-08-21T15:29:47.318Z,27.00
2022-08-21T15:32:23.733Z,27.10
2022-08-21T15:34:54.337Z,27.00
2022-08-21T15:37:24.094Z,27.10
2022-08-21T15:39:54.074Z,26.60
2022-08-21T15:42:24.261Z,26.50
2022-08-21T15:44:54.823Z,26.20
2022-08-21T15:47:28.353Z,26.30
2022-08-21T15:49:58.047Z,26.00
2022-08-21T15:52:26.290Z,25.90
2022-08-21T15:54:55.266Z,25.70
2022-08-21T15:57:26.248Z,25.50
2022-08-21T15:59:58.220Z,25.30
2022-08-21T16:02:29.965Z,25.20
2022-08-21T16:05:00.354Z,25.00
2022-08-21T16:07:28.789Z,24.80
2022-08-21T16:09:56.829Z,24.60
2022-08-21T16:12:32.456Z,24.40
2022-08-21T16:15:03.081Z,24.30
2022-08-21T16:17:34.431Z,24.10
2022-08-21T16:20:10.266Z,24.10
2022-08-21T16:22:44.033Z,23.90
2022-08-21T16:25:14.800Z,23.90
2022-08-21T16:27:46.882Z,23.70
2022-08-21T16:30:17.737Z,23.60
2022-08-21T16:32:47.524Z,23.50
2022-08-21T16:35:21.946Z,23.40
2022-08-21T16:37:53.204Z,23.20
2022-08-21T16:40:23.364Z,23.10
2022-08-21T16:42:52.187Z,23.10
2022-08-21T16:45:22.153Z,23.00
2022-08-21T16:47:51.262Z,22.90
2022-08-21T16:50:25.431Z,22.90
2022-08-21T16:52:54.418Z,22.70
2022-08-21T16:55:22.657Z,22.80
2022-08-21T16:57:50.811Z,22.80
2022-08-21T17:00:19.302Z,22.70
2022-08-21T17:02:53.392Z,22.70
2022-08-21T17:05:23.303Z,22.60
2022-08-21T17:07:51.689Z,22.60
2022-08-21T17:10:20.231Z,22.50
2022-08-21T17:12:56.692Z,22.50
2022-08-21T17:15:35.141Z,22.60
2022-08-21T17:18:07.526Z,22.40
2022-08-21T17:20:37.019Z,22.30
2022-08-21T17:23:05.735Z,22.30
2022-08-21T17:25:34.748Z,22.30
2022-08-21T17:28:04.467Z,22.20
2022-08-21T17:30:32.811Z,22.20
2022-08-21T17:33:02.141Z,22.10
2022-08-21T17:35:30.483Z,22.00
2022-08-21T17:37:59.985Z,21.90
2022-08-21T17:40:28.167Z,21.90
2022-08-21T17:42:56.383Z,21.80
2022-08-21T17:45:25.648Z,21.70
2022-08-21T17:47:54.209Z,21.60
2022-08-21T17:50:23.375Z,21.50
2022-08-21T17:52:51.920Z,21.40
2022-08-21T17:55:23.053Z,21.30
2022-08-21T17:57:53.930Z,21.20
2022-08-21T18:00:25.672Z,21.00
2022-08-21T18:03:14.752Z,20.90
2022-08-21T18:05:44.599Z,20.90
2022-08-21T18:08:13.408Z,20.70
2022-08-21T18:10:46.351Z,20.60
2022-08-21T18:13:20.321Z,20.50
2022-08-21T18:15:53.576Z,20.40
2022-08-21T18:18:22.446Z,20.30
2022-08-21T18:20:51.463Z,20.20
2022-08-21T18:23:19.610Z,20.20
2022-08-21T18:26:00.901Z,20.20
2022-08-21T18:28:29.870Z,20.10
2022-08-21T18:30:59.207Z,20.00
2022-08-21T18:33:27.544Z,19.90
2022-08-21T18:35:55.663Z,19.80
2022-08-21T18:38:28.818Z,19.70
2022-08-21T18:40:59.652Z,19.60
2022-08-21T18:43:28.490Z,19.60
2022-08-21T18:45:57.655Z,19.50
2022-08-21T18:48:26.900Z,19.40
2022-08-21T18:50:57.740Z,19.20
2022-08-21T18:53:29.245Z,19.20
2022-08-21T18:56:04.992Z,19.10
2022-08-21T18:58:33.954Z,19.10
2022-08-21T19:01:02.463Z,19.00
2022-08-21T19:03:30.658Z,18.90
2022-08-21T19:05:59.966Z,18.80
2022-08-21T19:08:28.733Z,18.70
2022-08-21T19:11:02.421Z,18.60
2022-08-21T19:13:31.829Z,18.60
2022-08-21T19:16:03.669Z,18.50
2022-08-21T19:18:35.993Z,18.40
2022-08-21T19:21:05.000Z,18.30
2022-08-21T19:26:27.466Z,18.10
2022-08-21T19:29:00.104Z,18.00
2022-08-21T19:31:33.850Z,18.00
2022-08-21T19:34:06.816Z,17.90
2022-08-21T19:36:36.230Z,17.90
2022-08-21T19:39:08.251Z,17.80
2022-08-21T19:42:00.306Z,17.80
2022-08-21T19:44:31.036Z,17.70
2022-08-21T19:47:02.014Z,17.70
2022-08-21T19:49:35.819Z,17.60
2022-08-21T19:52:13.905Z,17.60
2022-08-21T19:54:42.922Z,17.50
2022-08-21T19:57:13.709Z,17.50
2022-08-21T19:59:44.099Z,17.40
2022-08-21T20:02:18.500Z,17.40
2022-08-21T20:04:53.533Z,17.30
2022-08-21T20:07:26.803Z,17.30
2022-08-21T20:09:55.683Z,17.20
2022-08-21T20:12:26.642Z,17.20
2022-08-21T20:14:56.045Z,17.20
2022-08-21T20:17:25.152Z,17.10
2022-08-21T20:19:55.166Z,17.10
2022-08-21T20:22:24.002Z,17.10
2022-08-21T20:24:52.570Z,17.00
2022-08-21T20:27:28.752Z,16.90
2022-08-21T20:29:57.352Z,16.90
2022-08-21T20:32:27.216Z,16.90
2022-08-21T20:34:55.462Z,16.90
2022-08-21T20:37:36.112Z,16.80
2022-08-21T20:40:10.227Z,16.70
2022-08-21T20:45:34.188Z,16.60
2022-08-21T20:48:07.249Z,16.60
2022-08-21T20:50:41.831Z,16.50
2022-08-21T20:53:17.217Z,16.50
2022-08-21T20:55:49.648Z,16.40
2022-08-21T20:58:32.185Z,16.40
2022-08-21T21:01:06.187Z,16.40
2022-08-21T21:03:42.642Z,16.40
2022-08-21T21:06:20.022Z,16.40
2022-08-21T21:08:56.930Z,16.30
2022-08-21T21:11:31.937Z,16.30
2022-08-21T21:14:08.813Z,16.30
2022-08-21T21:16:45.893Z,16.20
2022-08-21T21:19:38.098Z,16.30
2022-08-21T21:22:11.525Z,16.20
2022-08-21T21:24:52.000Z,16.20
2022-08-21T21:27:34.896Z,16.10
2022-08-21T21:30:24.563Z,16.10
2022-08-21T21:32:54.262Z,16.00
2022-08-21T21:35:32.533Z,16.00
2022-08-21T21:38:11.590Z,15.90
2022-08-21T21:40:56.116Z,15.90
2022-08-21T21:43:49.278Z,15.90
2022-08-21T21:46:36.584Z,15.90
2022-08-21T21:49:33.932Z,15.80
2022-08-21T21:52:21.276Z,15.70
2022-08-21T21:55:18.385Z,15.70
2022-08-21T21:58:24.985Z,15.70
2022-08-21T22:01:04.397Z,15.70
2022-08-21T22:03:46.339Z,15.70
2022-08-21T22:06:28.351Z,15.80
2022-08-21T22:09:12.350Z,15.80
2022-08-21T22:12:04.564Z,15.80
2022-08-21T22:14:39.715Z,15.80
2022-08-21T22:17:37.251Z,15.70
2022-08-21T22:20:18.543Z,15.70
2022-08-21T22:22:48.357Z,15.70
2022-08-21T22:25:22.375Z,15.70
2022-08-21T22:27:58.816Z,15.60
2022-08-21T22:30:45.425Z,15.50
2022-08-21T22:33:19.995Z,15.50
2022-08-21T22:35:53.134Z,15.40
2022-08-21T22:38:33.420Z,15.40
2022-08-21T22:41:17.603Z,15.30
2022-08-21T22:43:56.639Z,15.30
2022-08-21T22:46:33.715Z,15.20
2022-08-21T22:49:10.420Z,15.20
2022-08-21T22:51:45.158Z,15.20
2022-08-21T22:54:24.714Z,15.10
2022-08-21T22:57:05.090Z,15.10
2022-08-21T22:59:40.475Z,15.20
2022-08-21T23:02:32.155Z,15.20
2022-08-21T23:05:10.344Z,15.20
2022-08-21T23:07:49.608Z,15.20
2022-08-21T23:10:27.601Z,15.10
2022-08-21T23:13:09.266Z,15.10
2022-08-21T23:15:49.772Z,15.00
2022-08-21T23:18:32.764Z,15.00
2022-08-21T23:21:11.414Z,15.00
2022-08-21T23:24:01.621Z,15.10
2022-08-21T23:26:46.944Z,15.00
2022-08-21T23:29:37.750Z,15.00
2022-08-21T23:35:49.157Z,15.00
2022-08-21T23:38:35.020Z,14.90
2022-08-21T23:41:34.142Z,14.80
2022-08-21T23:44:25.479Z,14.80
2022-08-21T23:47:29.438Z,14.80
2022-08-21T23:50:14.146Z,14.80
2022-08-21T23:53:04.921Z,14.80
2022-08-21T23:56:05.950Z,14.80
2022-08-21T23:58:50.347Z,14.80
